sensor_id;sensor_type;location;lat;lon;timestamp;pressure;altitude;pressure_sealevel;temperature;humidity
4199;BME280;2113;50.946;14.610;2023-07-20T00:00:31;51752.38;;;-141.55;77.32
4199;BME280;2113;50.946;14.610;2023-07-20T00:03:13;51758.38;;;-141.55;77.52
4199;BME280;2113;50.946;14.610;2023-07-20T00:05:44;51752.38;;;-141.55;77.52
4199;BME280;2113;50.946;14.610;2023-07-20T00:08:12;51774.31;;;-141.55;77.65
4199;BME280;2113;50.946;14.610;2023-07-20T00:10:40;51754.38;;;-141.55;77.36
4199;BME280;2113;50.946;14.610;2023-07-20T00:13:11;51776.31;;;-141.55;77.04
4199;BME280;2113;50.946;14.610;2023-07-20T00:15:39;51802.22;;;-141.55;77.37
4199;BME280;2113;50.946;14.610;2023-07-20T00:18:08;51802.22;;;-141.55;77.67
4199;BME280;2113;50.946;14.610;2023-07-20T00:20:36;51756.38;;;-141.55;77.64
4199;BME280;2113;50.946;14.610;2023-07-20T00:23:05;51778.31;;;-141.55;77.54
4199;BME280;2113;50.946;14.610;2023-07-20T00:25:34;51762.34;;;-141.55;77.60
4199;BME280;2113;50.946;14.610;2023-07-20T00:28:04;51756.38;;;-141.55;77.36
4199;BME280;2113;50.946;14.610;2023-07-20T00:30:34;51762.34;;;-141.55;77.31
4199;BME280;2113;50.946;14.610;2023-07-20T00:33:02;51746.41;;;-141.55;77.07
4199;BME280;2113;50.946;14.610;2023-07-20T00:35:31;51768.34;;;-141.55;76.85
4199;BME280;2113;50.946;14.610;2023-07-20T00:38:00;51766.34;;;-141.55;76.40
4199;BME280;2113;50.946;14.610;2023-07-20T00:40:28;51764.34;;;-141.55;76.23
4199;BME280;2113;50.946;14.610;2023-07-20T00:42:57;51756.38;;;-141.55;76.50
4199;BME280;2113;50.946;14.610;2023-07-20T00:45:25;51748.41;;;-141.55;76.54
4199;BME280;2113;50.946;14.610;2023-07-20T00:47:56;51746.41;;;-141.55;76.78
4199;BME280;2113;50.946;14.610;2023-07-20T00:50:25;51790.28;;;-141.55;76.49
4199;BME280;2113;50.946;14.610;2023-07-20T00:52:55;51732.44;;;-141.55;76.69
4199;BME280;2113;50.946;14.610;2023-07-20T00:55:25;51758.38;;;-141.55;76.38
4199;BME280;2113;50.946;14.610;2023-07-20T00:57:54;51748.41;;;-141.55;76.10
4199;BME280;2113;50.946;14.610;2023-07-20T01:00:23;51780.31;;;-141.55;76.11
4199;BME280;2113;50.946;14.610;2023-07-20T01:02:52;51774.31;;;-141.55;76.40
4199;BME280;2113;50.946;14.610;2023-07-20T01:05:24;51762.34;;;-141.55;76.65
4199;BME280;2113;50.946;14.610;2023-07-20T01:08:00;51742.41;;;-141.55;76.78
4199;BME280;2113;50.946;14.610;2023-07-20T01:10:38;51754.38;;;-141.55;76.69
4199;BME280;2113;50.946;14.610;2023-07-20T01:13:09;51746.41;;;-141.55;76.80
4199;BME280;2113;50.946;14.610;2023-07-20T01:15:38;51760.34;;;-141.55;76.44
4199;BME280;2113;50.946;14.610;2023-07-20T01:18:06;51746.41;;;-141.55;76.52
4199;BME280;2113;50.946;14.610;2023-07-20T01:20:37;51768.34;;;-141.55;76.66
4199;BME280;2113;50.946;14.610;2023-07-20T01:23:20;51742.41;;;-141.55;76.86
4199;BME280;2113;50.946;14.610;2023-07-20T01:26:12;51742.41;;;-141.55;76.57
4199;BME280;2113;50.946;14.610;2023-07-20T01:29:17;51734.44;;;-141.55;76.64
4199;BME280;2113;50.946;14.610;2023-07-20T01:31:53;51766.34;;;-141.55;77.22
4199;BME280;2113;50.946;14.610;2023-07-20T01:34:23;51742.41;;;-141.55;77.29
4199;BME280;2113;50.946;14.610;2023-07-20T01:36:53;51726.47;;;-141.55;77.23
4199;BME280;2113;50.946;14.610;2023-07-20T01:39:23;51742.41;;;-141.55;76.74
4199;BME280;2113;50.946;14.610;2023-07-20T01:41:51;51760.34;;;-141.55;76.74
4199;BME280;2113;50.946;14.610;2023-07-20T01:44:21;51770.31;;;-141.55;77.15
4199;BME280;2113;50.946;14.610;2023-07-20T01:46:52;51744.41;;;-141.55;77.48
4199;BME280;2113;50.946;14.610;2023-07-20T01:49:20;51778.31;;;-141.55;77.23
4199;BME280;2113;50.946;14.610;2023-07-20T01:51:49;51740.41;;;-141.55;77.07
4199;BME280;2113;50.946;14.610;2023-07-20T01:54:17;51756.38;;;-141.55;76.88
4199;BME280;2113;50.946;14.610;2023-07-20T01:56:46;51774.31;;;-141.55;76.77
4199;BME280;2113;50.946;14.610;2023-07-20T01:59:14;51774.31;;;-141.55;76.85
4199;BME280;2113;50.946;14.610;2023-07-20T02:01:43;51734.44;;;-141.55;76.88
4199;BME280;2113;50.946;14.610;2023-07-20T02:04:13;51792.25;;;-141.55;76.87
4199;BME280;2113;50.946;14.610;2023-07-20T02:06:41;51770.31;;;-141.55;77.23
4199;BME280;2113;50.946;14.610;2023-07-20T02:09:12;51762.34;;;-141.55;77.03
4199;BME280;2113;50.946;14.610;2023-07-20T02:11:40;51768.34;;;-141.55;77.21
4199;BME280;2113;50.946;14.610;2023-07-20T02:14:10;51800.25;;;-141.55;77.11
4199;BME280;2113;50.946;14.610;2023-07-20T02:16:39;51764.34;;;-141.55;77.07
4199;BME280;2113;50.946;14.610;2023-07-20T02:19:07;51766.34;;;-141.55;76.91
4199;BME280;2113;50.946;14.610;2023-07-20T02:21:37;51762.34;;;-141.55;76.97
4199;BME280;2113;50.946;14.610;2023-07-20T02:24:05;51766.34;;;-141.55;77.31
4199;BME280;2113;50.946;14.610;2023-07-20T02:26:35;51814.19;;;-141.55;77.46
4199;BME280;2113;50.946;14.610;2023-07-20T02:29:03;51808.22;;;-141.55;77.68
4199;BME280;2113;50.946;14.610;2023-07-20T02:31:32;51770.31;;;-141.55;78.18
4199;BME280;2113;50.946;14.610;2023-07-20T02:34:00;51826.16;;;-141.55;78.37
4199;BME280;2113;50.946;14.610;2023-07-20T02:36:29;51814.19;;;-141.55;78.64
4199;BME280;2113;50.946;14.610;2023-07-20T02:39:01;51800.25;;;-141.55;79.08
4199;BME280;2113;50.946;14.610;2023-07-20T02:41:33;51734.44;;;-141.55;78.72
4199;BME280;2113;50.946;14.610;2023-07-20T02:44:01;51770.31;;;-141.55;78.51
4199;BME280;2113;50.946;14.610;2023-07-20T02:46:30;51842.13;;;-141.55;78.50
4199;BME280;2113;50.946;14.610;2023-07-20T02:48:59;51774.31;;;-141.55;78.17
4199;BME280;2113;50.946;14.610;2023-07-20T02:51:28;51798.25;;;-141.55;78.34
4199;BME280;2113;50.946;14.610;2023-07-20T02:53:56;51814.19;;;-141.55;78.05
4199;BME280;2113;50.946;14.610;2023-07-20T02:56:26;51812.22;;;-141.55;78.42
4199;BME280;2113;50.946;14.610;2023-07-20T02:58:55;51796.25;;;-141.55;78.48
4199;BME280;2113;50.946;14.610;2023-07-20T03:01:24;51774.31;;;-141.55;78.65
4199;BME280;2113;50.946;14.610;2023-07-20T03:03:56;51808.22;;;-141.55;78.60
4199;BME280;2113;50.946;14.610;2023-07-20T03:06:25;51836.13;;;-141.55;78.72
4199;BME280;2113;50.946;14.610;2023-07-20T03:08:54;51828.16;;;-141.55;78.50
4199;BME280;2113;50.946;14.610;2023-07-20T03:11:22;51750.38;;;-141.55;79.05
4199;BME280;2113;50.946;14.610;2023-07-20T03:13:52;51822.19;;;-141.55;79.20
4199;BME280;2113;50.946;14.610;2023-07-20T03:16:23;51826.16;;;-141.55;79.29
4199;BME280;2113;50.946;14.610;2023-07-20T03:18:53;51822.19;;;-141.55;79.12
4199;BME280;2113;50.946;14.610;2023-07-20T03:21:25;51806.22;;;-141.55;79.33
4199;BME280;2113;50.946;14.610;2023-07-20T03:23:53;51840.13;;;-141.55;79.52
4199;BME280;2113;50.946;14.610;2023-07-20T03:26:21;51818.19;;;-141.55;79.42
4199;BME280;2113;50.946;14.610;2023-07-20T03:28:52;51800.25;;;-141.55;79.50
4199;BME280;2113;50.946;14.610;2023-07-20T03:31:21;51830.16;;;-141.55;79.56
4199;BME280;2113;50.946;14.610;2023-07-20T03:33:50;51808.22;;;-141.55;79.39
4199;BME280;2113;50.946;14.610;2023-07-20T03:36:19;51780.31;;;-141.55;79.33
4199;BME280;2113;50.946;14.610;2023-07-20T03:38:49;51844.13;;;-141.55;79.42
4199;BME280;2113;50.946;14.610;2023-07-20T03:41:17;51838.13;;;-141.55;79.45
4199;BME280;2113;50.946;14.610;2023-07-20T03:43:46;51778.31;;;-141.55;79.33
4199;BME280;2113;50.946;14.610;2023-07-20T03:46:17;51794.25;;;-141.55;79.38
4199;BME280;2113;50.946;14.610;2023-07-20T03:48:46;51820.19;;;-141.55;79.21
4199;BME280;2113;50.946;14.610;2023-07-20T03:51:15;51816.19;;;-141.55;78.99
4199;BME280;2113;50.946;14.610;2023-07-20T03:53:43;51812.22;;;-141.55;78.82
4199;BME280;2113;50.946;14.610;2023-07-20T03:56:11;51846.09;;;-141.55;78.68
4199;BME280;2113;50.946;14.610;2023-07-20T03:58:40;51842.13;;;-141.55;78.05
4199;BME280;2113;50.946;14.610;2023-07-20T04:01:08;51836.13;;;-141.55;78.15
4199;BME280;2113;50.946;14.610;2023-07-20T04:03:38;51794.25;;;-141.55;78.08
4199;BME280;2113;50.946;14.610;2023-07-20T04:06:07;51818.19;;;-141.55;77.84
4199;BME280;2113;50.946;14.610;2023-07-20T04:08:35;51790.28;;;-141.55;77.98
4199;BME280;2113;50.946;14.610;2023-07-20T04:11:04;51782.28;;;-141.55;77.57
4199;BME280;2113;50.946;14.610;2023-07-20T04:13:33;51816.19;;;-141.55;77.60
4199;BME280;2113;50.946;14.610;2023-07-20T04:16:01;51810.22;;;-141.55;77.49
4199;BME280;2113;50.946;14.610;2023-07-20T04:18:30;51800.25;;;-141.55;77.49
4199;BME280;2113;50.946;14.610;2023-07-20T04:21:00;51818.19;;;-141.55;77.62
4199;BME280;2113;50.946;14.610;2023-07-20T04:23:28;51794.25;;;-141.55;77.71
4199;BME280;2113;50.946;14.610;2023-07-20T04:25:57;51806.22;;;-141.55;77.49
4199;BME280;2113;50.946;14.610;2023-07-20T04:28:25;51822.19;;;-141.55;77.26
4199;BME280;2113;50.946;14.610;2023-07-20T04:30:54;51810.22;;;-141.55;76.99
4199;BME280;2113;50.946;14.610;2023-07-20T04:33:22;51806.22;;;-141.55;76.71
4199;BME280;2113;50.946;14.610;2023-07-20T04:35:53;51830.16;;;-141.55;76.95
4199;BME280;2113;50.946;14.610;2023-07-20T04:38:29;51808.22;;;-141.55;76.70
4199;BME280;2113;50.946;14.610;2023-07-20T04:41:05;51842.13;;;-141.55;76.40
4199;BME280;2113;50.946;14.610;2023-07-20T04:43:41;51810.22;;;-141.55;76.20
4199;BME280;2113;50.946;14.610;2023-07-20T04:46:12;51770.31;;;-141.55;75.85
4199;BME280;2113;50.946;14.610;2023-07-20T04:48:41;51808.22;;;-141.55;75.77
4199;BME280;2113;50.946;14.610;2023-07-20T04:51:10;51840.13;;;-141.55;75.06
4199;BME280;2113;50.946;14.610;2023-07-20T04:53:40;51826.16;;;-141.55;75.46
4199;BME280;2113;50.946;14.610;2023-07-20T04:56:35;51800.25;;;-141.55;74.95
4199;BME280;2113;50.946;14.610;2023-07-20T04:59:07;51860.06;;;-141.55;73.87
4199;BME280;2113;50.946;14.610;2023-07-20T05:01:35;51792.25;;;-141.55;74.25
4199;BME280;2113;50.946;14.610;2023-07-20T05:04:04;51846.09;;;-141.55;74.32
4199;BME280;2113;50.946;14.610;2023-07-20T05:06:35;51818.19;;;-141.55;73.62
4199;BME280;2113;50.946;14.610;2023-07-20T05:09:08;51812.22;;;-141.55;73.75
4199;BME280;2113;50.946;14.610;2023-07-20T05:11:36;51782.28;;;-141.55;71.88
4199;BME280;2113;50.946;14.610;2023-07-20T05:14:05;51798.25;;;-141.55;71.95
4199;BME280;2113;50.946;14.610;2023-07-20T05:16:35;51772.31;;;-141.55;71.29
4199;BME280;2113;50.946;14.610;2023-07-20T05:19:05;51764.34;;;-141.55;71.73
4199;BME280;2113;50.946;14.610;2023-07-20T05:21:34;51820.19;;;-141.55;71.87
4199;BME280;2113;50.946;14.610;2023-07-20T05:24:03;51806.22;;;-141.55;71.88
4199;BME280;2113;50.946;14.610;2023-07-20T05:26:33;51810.22;;;-141.55;71.78
4199;BME280;2113;50.946;14.610;2023-07-20T05:29:02;51822.19;;;-141.55;71.71
4199;BME280;2113;50.946;14.610;2023-07-20T05:31:30;51780.31;;;-141.55;72.78
4199;BME280;2113;50.946;14.610;2023-07-20T05:33:59;51798.25;;;-141.55;72.67
4199;BME280;2113;50.946;14.610;2023-07-20T05:36:28;51826.16;;;-141.55;71.80
4199;BME280;2113;50.946;14.610;2023-07-20T05:38:57;51808.22;;;-141.55;71.92
4199;BME280;2113;50.946;14.610;2023-07-20T05:41:26;51774.31;;;-141.55;71.78
4199;BME280;2113;50.946;14.610;2023-07-20T05:43:56;51788.28;;;-141.55;71.81
4199;BME280;2113;50.946;14.610;2023-07-20T05:46:24;51808.22;;;-141.55;72.12
4199;BME280;2113;50.946;14.610;2023-07-20T05:49:02;51798.25;;;-141.55;71.35
4199;BME280;2113;50.946;14.610;2023-07-20T05:51:30;51778.31;;;-141.55;71.26
4199;BME280;2113;50.946;14.610;2023-07-20T05:54:02;51796.25;;;-141.55;70.82
4199;BME280;2113;50.946;14.610;2023-07-20T05:56:30;51832.16;;;-141.55;71.29
4199;BME280;2113;50.946;14.610;2023-07-20T05:59:00;51798.25;;;-141.55;70.92
4199;BME280;2113;50.946;14.610;2023-07-20T06:01:29;51840.13;;;-141.55;69.97
4199;BME280;2113;50.946;14.610;2023-07-20T06:03:58;51798.25;;;-141.55;70.54
4199;BME280;2113;50.946;14.610;2023-07-20T06:06:26;51750.38;;;-141.55;69.18
4199;BME280;2113;50.946;14.610;2023-07-20T06:08:54;51758.38;;;-141.55;69.06
4199;BME280;2113;50.946;14.610;2023-07-20T06:11:24;51764.34;;;-141.55;67.04
4199;BME280;2113;50.946;14.610;2023-07-20T06:13:52;51774.31;;;-141.55;66.66
4199;BME280;2113;50.946;14.610;2023-07-20T06:16:22;51788.28;;;-141.55;66.49
4199;BME280;2113;50.946;14.610;2023-07-20T06:18:51;51734.44;;;-141.55;66.62
4199;BME280;2113;50.946;14.610;2023-07-20T06:21:20;51786.28;;;-141.55;67.74
4199;BME280;2113;50.946;14.610;2023-07-20T06:23:48;51766.34;;;-141.55;66.83
4199;BME280;2113;50.946;14.610;2023-07-20T06:26:16;51782.28;;;-141.55;67.81
4199;BME280;2113;50.946;14.610;2023-07-20T06:28:45;51776.31;;;-141.55;68.27
4199;BME280;2113;50.946;14.610;2023-07-20T06:31:13;51746.41;;;-141.55;64.92
4199;BME280;2113;50.946;14.610;2023-07-20T06:33:43;51782.28;;;-141.55;64.48
4199;BME280;2113;50.946;14.610;2023-07-20T06:36:11;51750.38;;;-141.55;65.20
4199;BME280;2113;50.946;14.610;2023-07-20T06:38:40;51758.38;;;-141.55;64.47
4199;BME280;2113;50.946;14.610;2023-07-20T06:41:29;51774.31;;;-141.55;64.07
4199;BME280;2113;50.946;14.610;2023-07-20T06:44:00;51768.34;;;-141.55;62.17
4199;BME280;2113;50.946;14.610;2023-07-20T06:46:28;51736.44;;;-141.55;62.97
4199;BME280;2113;50.946;14.610;2023-07-20T06:48:59;51778.31;;;-141.55;64.22
4199;BME280;2113;50.946;14.610;2023-07-20T06:51:30;51778.31;;;-141.55;64.98
4199;BME280;2113;50.946;14.610;2023-07-20T06:53:58;51762.34;;;-141.55;65.57
4199;BME280;2113;50.946;14.610;2023-07-20T06:56:27;51756.38;;;-141.55;65.59
4199;BME280;2113;50.946;14.610;2023-07-20T06:58:58;51790.28;;;-141.55;65.64
4199;BME280;2113;50.946;14.610;2023-07-20T07:01:26;51818.19;;;-141.55;66.46
4199;BME280;2113;50.946;14.610;2023-07-20T07:03:55;51776.31;;;-141.55;66.96
4199;BME280;2113;50.946;14.610;2023-07-20T07:06:25;51788.28;;;-141.55;66.02
4199;BME280;2113;50.946;14.610;2023-07-20T07:08:55;51806.22;;;-141.55;65.46
4199;BME280;2113;50.946;14.610;2023-07-20T07:11:24;51784.28;;;-141.55;63.82
4199;BME280;2113;50.946;14.610;2023-07-20T07:13:53;51782.28;;;-141.55;64.47
4199;BME280;2113;50.946;14.610;2023-07-20T07:16:23;51724.47;;;-141.55;58.16
4199;BME280;2113;50.946;14.610;2023-07-20T07:18:52;51714.50;;;-141.55;58.56
4199;BME280;2113;50.946;14.610;2023-07-20T07:21:27;51682.59;;;-141.55;55.06
4199;BME280;2113;50.946;14.610;2023-07-20T07:23:57;51730.44;;;-141.55;57.61
4199;BME280;2113;50.946;14.610;2023-07-20T07:26:27;51724.47;;;-141.55;59.55
4199;BME280;2113;50.946;14.610;2023-07-20T07:28:55;51776.31;;;-141.55;61.55
4199;BME280;2113;50.946;14.610;2023-07-20T07:31:24;51730.44;;;-141.55;60.16
4199;BME280;2113;50.946;14.610;2023-07-20T07:33:53;51730.44;;;-141.55;60.78
4199;BME280;2113;50.946;14.610;2023-07-20T07:36:21;51726.47;;;-141.55;59.17
4199;BME280;2113;50.946;14.610;2023-07-20T07:38:52;51776.31;;;-141.55;59.65
4199;BME280;2113;50.946;14.610;2023-07-20T07:41:24;51746.41;;;-141.55;62.34
4199;BME280;2113;50.946;14.610;2023-07-20T07:43:52;51758.38;;;-141.55;61.74
4199;BME280;2113;50.946;14.610;2023-07-20T07:46:21;51748.41;;;-141.55;59.72
4199;BME280;2113;50.946;14.610;2023-07-20T07:48:49;51680.59;;;-141.55;52.52
4199;BME280;2113;50.946;14.610;2023-07-20T07:51:19;51700.53;;;-141.55;53.84
4199;BME280;2113;50.946;14.610;2023-07-20T07:53:47;51756.38;;;-141.55;56.37
4199;BME280;2113;50.946;14.610;2023-07-20T07:56:18;51750.38;;;-141.55;59.19
4199;BME280;2113;50.946;14.610;2023-07-20T07:58:51;51774.31;;;-141.55;60.19
4199;BME280;2113;50.946;14.610;2023-07-20T08:01:21;51756.38;;;-141.55;61.05
4199;BME280;2113;50.946;14.610;2023-07-20T08:03:50;51798.25;;;-141.55;62.03
4199;BME280;2113;50.946;14.610;2023-07-20T08:06:18;51818.19;;;-141.55;66.22
4199;BME280;2113;50.946;14.610;2023-07-20T08:08:47;51798.25;;;-141.55;69.13
4199;BME280;2113;50.946;14.610;2023-07-20T08:11:15;51830.16;;;-141.55;71.68
4199;BME280;2113;50.946;14.610;2023-07-20T08:13:46;51840.13;;;-141.55;72.14
4199;BME280;2113;50.946;14.610;2023-07-20T08:16:14;51818.19;;;-141.55;73.56
4199;BME280;2113;50.946;14.610;2023-07-20T08:18:43;51840.13;;;-141.55;73.44
4199;BME280;2113;50.946;14.610;2023-07-20T08:21:12;51844.13;;;-141.55;73.47
4199;BME280;2113;50.946;14.610;2023-07-20T08:23:41;51816.19;;;-141.55;72.35
4199;BME280;2113;50.946;14.610;2023-07-20T08:26:09;51814.19;;;-141.55;72.14
4199;BME280;2113;50.946;14.610;2023-07-20T08:28:38;51768.34;;;-141.55;72.19
4199;BME280;2113;50.946;14.610;2023-07-20T08:31:08;51748.41;;;-141.55;71.50
4199;BME280;2113;50.946;14.610;2023-07-20T08:33:36;51802.22;;;-141.55;69.56
4199;BME280;2113;50.946;14.610;2023-07-20T08:36:05;51802.22;;;-141.55;69.15
4199;BME280;2113;50.946;14.610;2023-07-20T08:38:38;51782.28;;;-141.55;69.53
4199;BME280;2113;50.946;14.610;2023-07-20T08:41:06;51772.31;;;-141.55;67.55
4199;BME280;2113;50.946;14.610;2023-07-20T08:44:01;51792.25;;;-141.55;67.59
4199;BME280;2113;50.946;14.610;2023-07-20T08:46:31;51778.31;;;-141.55;66.35
4199;BME280;2113;50.946;14.610;2023-07-20T08:49:00;51796.25;;;-141.55;66.19
4199;BME280;2113;50.946;14.610;2023-07-20T08:51:30;51742.41;;;-141.55;63.55
4199;BME280;2113;50.946;14.610;2023-07-20T08:54:00;51710.50;;;-141.55;60.11
4199;BME280;2113;50.946;14.610;2023-07-20T08:56:30;51688.56;;;-141.55;60.15
4199;BME280;2113;50.946;14.610;2023-07-20T08:58:59;51738.41;;;-141.55;60.28
4199;BME280;2113;50.946;14.610;2023-07-20T09:01:28;51756.38;;;-141.55;62.14
4199;BME280;2113;50.946;14.610;2023-07-20T09:03:58;51738.41;;;-141.55;62.63
4199;BME280;2113;50.946;14.610;2023-07-20T09:06:27;51762.34;;;-141.55;62.05
4199;BME280;2113;50.946;14.610;2023-07-20T09:08:56;51748.41;;;-141.55;62.80
4199;BME280;2113;50.946;14.610;2023-07-20T09:11:24;51782.28;;;-141.55;64.73
4199;BME280;2113;50.946;14.610;2023-07-20T09:14:03;51748.41;;;-141.55;63.53
4199;BME280;2113;50.946;14.610;2023-07-20T09:16:31;51760.34;;;-141.55;63.56
4199;BME280;2113;50.946;14.610;2023-07-20T09:19:01;51746.41;;;-141.55;61.01
4199;BME280;2113;50.946;14.610;2023-07-20T09:21:29;51788.28;;;-141.55;62.52
4199;BME280;2113;50.946;14.610;2023-07-20T09:23:58;51738.41;;;-141.55;63.53
4199;BME280;2113;50.946;14.610;2023-07-20T09:26:27;51762.34;;;-141.55;62.76
4199;BME280;2113;50.946;14.610;2023-07-20T09:28:55;51760.34;;;-141.55;61.58
4199;BME280;2113;50.946;14.610;2023-07-20T09:31:23;51738.41;;;-141.55;60.85
4199;BME280;2113;50.946;14.610;2023-07-20T09:33:53;51670.63;;;-141.55;54.95
4199;BME280;2113;50.946;14.610;2023-07-20T09:36:27;51616.78;;;-141.55;53.70
4199;BME280;2113;50.946;14.610;2023-07-20T09:38:59;51564.94;;;-141.55;50.70
4199;BME280;2113;50.946;14.610;2023-07-20T09:41:39;51654.66;;;-141.55;52.47
4199;BME280;2113;50.946;14.610;2023-07-20T09:44:14;51640.72;;;-141.55;52.30
4199;BME280;2113;50.946;14.610;2023-07-20T09:46:46;51654.66;;;-141.55;52.01
4199;BME280;2113;50.946;14.610;2023-07-20T09:49:18;51670.63;;;-141.55;50.50
4199;BME280;2113;50.946;14.610;2023-07-20T09:51:52;51680.59;;;-141.55;52.95
4199;BME280;2113;50.946;14.610;2023-07-20T09:54:21;51748.41;;;-141.55;54.21
4199;BME280;2113;50.946;14.610;2023-07-20T09:56:51;51758.38;;;-141.55;56.40
4199;BME280;2113;50.946;14.610;2023-07-20T09:59:20;51686.56;;;-141.55;52.01
4199;BME280;2113;50.946;14.610;2023-07-20T10:01:49;51670.63;;;-141.55;50.23
4199;BME280;2113;50.946;14.610;2023-07-20T10:04:21;51662.66;;;-141.55;51.59
4199;BME280;2113;50.946;14.610;2023-07-20T10:06:54;51670.63;;;-141.55;49.13
4199;BME280;2113;50.946;14.610;2023-07-20T10:09:24;51588.88;;;-141.55;48.08
4199;BME280;2113;50.946;14.610;2023-07-20T10:11:55;51632.72;;;-141.55;49.23
4199;BME280;2113;50.946;14.610;2023-07-20T10:14:54;51620.78;;;-141.55;48.46
4199;BME280;2113;50.946;14.610;2023-07-20T10:17:28;51636.72;;;-141.55;48.16
4199;BME280;2113;50.946;14.610;2023-07-20T10:20:00;51648.69;;;-141.55;46.74
4199;BME280;2113;50.946;14.610;2023-07-20T10:22:35;51644.69;;;-141.55;46.86
4199;BME280;2113;50.946;14.610;2023-07-20T10:25:08;51592.84;;;-141.55;46.50
4199;BME280;2113;50.946;14.610;2023-07-20T10:27:38;51586.88;;;-141.55;47.30
4199;BME280;2113;50.946;14.610;2023-07-20T10:30:08;51676.59;;;-141.55;50.58
4199;BME280;2113;50.946;14.610;2023-07-20T10:32:36;51682.59;;;-141.55;51.92
4199;BME280;2113;50.946;14.610;2023-07-20T10:35:12;51712.50;;;-141.55;52.79
4199;BME280;2113;50.946;14.610;2023-07-20T10:37:50;51780.31;;;-141.55;52.55
4199;BME280;2113;50.946;14.610;2023-07-20T10:40:29;51724.47;;;-141.55;51.79
4199;BME280;2113;50.946;14.610;2023-07-20T10:43:00;51738.41;;;-141.55;53.34
4199;BME280;2113;50.946;14.610;2023-07-20T10:45:41;51754.38;;;-141.55;53.33
4199;BME280;2113;50.946;14.610;2023-07-20T10:48:14;51754.38;;;-141.55;53.77
4199;BME280;2113;50.946;14.610;2023-07-20T10:50:43;51778.31;;;-141.55;53.44
4199;BME280;2113;50.946;14.610;2023-07-20T10:53:15;51774.31;;;-141.55;54.02
4199;BME280;2113;50.946;14.610;2023-07-20T10:55:43;51750.38;;;-141.55;54.85
4199;BME280;2113;50.946;14.610;2023-07-20T10:58:14;51758.38;;;-141.55;53.43
4199;BME280;2113;50.946;14.610;2023-07-20T11:00:56;51800.25;;;-141.55;54.42
4199;BME280;2113;50.946;14.610;2023-07-20T11:03:28;51758.38;;;-141.55;55.06
4199;BME280;2113;50.946;14.610;2023-07-20T11:06:31;51766.34;;;-141.55;58.20
4199;BME280;2113;50.946;14.610;2023-07-20T11:09:08;51754.38;;;-141.55;54.66
4199;BME280;2113;50.946;14.610;2023-07-20T11:11:38;51786.28;;;-141.55;54.85
4199;BME280;2113;50.946;14.610;2023-07-20T11:14:08;51746.41;;;-141.55;53.69
4199;BME280;2113;50.946;14.610;2023-07-20T11:16:43;51726.47;;;-141.55;53.95
4199;BME280;2113;50.946;14.610;2023-07-20T11:19:14;51744.41;;;-141.55;57.47
4199;BME280;2113;50.946;14.610;2023-07-20T11:21:50;51766.34;;;-141.55;59.03
4199;BME280;2113;50.946;14.610;2023-07-20T11:24:31;51788.28;;;-141.55;63.09
4199;BME280;2113;50.946;14.610;2023-07-20T11:27:00;51770.31;;;-141.55;64.82
4199;BME280;2113;50.946;14.610;2023-07-20T11:29:29;51820.19;;;-141.55;64.91
4199;BME280;2113;50.946;14.610;2023-07-20T11:32:01;51810.22;;;-141.55;68.49
4199;BME280;2113;50.946;14.610;2023-07-20T11:34:33;51854.09;;;-141.55;66.94
4199;BME280;2113;50.946;14.610;2023-07-20T11:37:02;51778.31;;;-141.55;65.98
4199;BME280;2113;50.946;14.610;2023-07-20T11:39:36;51750.38;;;-141.55;65.89
4199;BME280;2113;50.946;14.610;2023-07-20T11:42:05;51754.38;;;-141.55;64.41
4199;BME280;2113;50.946;14.610;2023-07-20T11:44:34;51764.34;;;-141.55;61.85
4199;BME280;2113;50.946;14.610;2023-07-20T11:47:04;51718.47;;;-141.55;61.61
4199;BME280;2113;50.946;14.610;2023-07-20T11:49:35;51726.47;;;-141.55;60.96
4199;BME280;2113;50.946;14.610;2023-07-20T11:52:05;51746.41;;;-141.55;59.91
4199;BME280;2113;50.946;14.610;2023-07-20T11:54:35;51740.41;;;-141.55;62.53
4199;BME280;2113;50.946;14.610;2023-07-20T11:57:06;51722.47;;;-141.55;59.48
4199;BME280;2113;50.946;14.610;2023-07-20T11:59:35;51734.44;;;-141.55;59.73
4199;BME280;2113;50.946;14.610;2023-07-20T12:02:05;51784.28;;;-141.55;58.58
4199;BME280;2113;50.946;14.610;2023-07-20T12:04:34;51792.25;;;-141.55;56.45
4199;BME280;2113;50.946;14.610;2023-07-20T12:07:03;51728.44;;;-141.55;58.30
4199;BME280;2113;50.946;14.610;2023-07-20T12:09:33;51774.31;;;-141.55;58.38
4199;BME280;2113;50.946;14.610;2023-07-20T12:12:18;51778.31;;;-141.55;57.79
4199;BME280;2113;50.946;14.610;2023-07-20T12:14:48;51772.31;;;-141.55;60.53
4199;BME280;2113;50.946;14.610;2023-07-20T12:17:16;51752.38;;;-141.55;57.72
4199;BME280;2113;50.946;14.610;2023-07-20T12:19:45;51720.47;;;-141.55;56.96
4199;BME280;2113;50.946;14.610;2023-07-20T12:22:14;51722.47;;;-141.55;53.73
4199;BME280;2113;50.946;14.610;2023-07-20T12:24:42;51722.47;;;-141.55;53.38
4199;BME280;2113;50.946;14.610;2023-07-20T12:27:13;51706.50;;;-141.55;52.10
4199;BME280;2113;50.946;14.610;2023-07-20T12:29:49;51748.41;;;-141.55;50.89
4199;BME280;2113;50.946;14.610;2023-07-20T12:32:17;51726.47;;;-141.55;54.04
4199;BME280;2113;50.946;14.610;2023-07-20T12:34:46;51752.38;;;-141.55;54.61
4199;BME280;2113;50.946;14.610;2023-07-20T12:37:17;51744.41;;;-141.55;55.53
4199;BME280;2113;50.946;14.610;2023-07-20T12:39:46;51786.28;;;-141.55;54.69
4199;BME280;2113;50.946;14.610;2023-07-20T12:42:15;51794.25;;;-141.55;56.04
4199;BME280;2113;50.946;14.610;2023-07-20T12:44:44;51780.31;;;-141.55;54.25
4199;BME280;2113;50.946;14.610;2023-07-20T12:47:14;51740.41;;;-141.55;55.77
4199;BME280;2113;50.946;14.610;2023-07-20T12:49:43;51756.38;;;-141.55;55.37
4199;BME280;2113;50.946;14.610;2023-07-20T12:52:12;51792.25;;;-141.55;54.11
4199;BME280;2113;50.946;14.610;2023-07-20T12:54:41;51794.25;;;-141.55;55.09
4199;BME280;2113;50.946;14.610;2023-07-20T12:57:09;51766.34;;;-141.55;56.18
4199;BME280;2113;50.946;14.610;2023-07-20T12:59:39;51734.44;;;-141.55;56.00
4199;BME280;2113;50.946;14.610;2023-07-20T13:02:07;51718.47;;;-141.55;53.41
4199;BME280;2113;50.946;14.610;2023-07-20T13:04:37;51764.34;;;-141.55;53.02
4199;BME280;2113;50.946;14.610;2023-07-20T13:07:09;51722.47;;;-141.55;52.27